createdAt,value
2022-07-30T00:01:35.901Z,18.67
2022-07-30T00:04:04.239Z,18.63
2022-07-30T00:06:32.830Z,18.59
2022-07-30T00:08:59.916Z,18.51
2022-07-30T00:11:28.014Z,18.47
2022-07-30T00:13:56.511Z,18.43
2022-07-30T00:16:23.864Z,18.38
2022-07-30T00:18:51.667Z,18.33
2022-07-30T00:21:34.615Z,18.29
2022-07-30T00:24:04.775Z,18.29
2022-07-30T00:26:32.147Z,18.21
2022-07-30T00:28:59.265Z,18.13
2022-07-30T00:31:26.523Z,18.06
2022-07-30T00:33:53.720Z,18.02
2022-07-30T00:36:20.915Z,17.98
2022-07-30T00:38:47.937Z,17.94
2022-07-30T00:41:15.404Z,17.91
2022-07-30T00:43:43.921Z,17.88
2022-07-30T00:46:11.308Z,17.84
2022-07-30T00:48:38.558Z,17.81
2022-07-30T00:51:05.839Z,17.76
2022-07-30T00:53:34.992Z,17.76
2022-07-30T00:56:03.642Z,17.77
2022-07-30T00:58:30.919Z,17.79
2022-07-30T01:00:58.470Z,17.80
2022-07-30T01:03:25.597Z,17.83
2022-07-30T01:05:52.806Z,17.83
2022-07-30T01:08:19.807Z,17.83
2022-07-30T01:10:46.848Z,17.86
2022-07-30T01:13:14.163Z,17.87
2022-07-30T01:15:42.118Z,17.92
2022-07-30T01:18:14.101Z,17.91
2022-07-30T01:21:10.883Z,17.92
2022-07-30T01:23:50.615Z,17.87
2022-07-30T01:26:22.443Z,17.81
2022-07-30T01:28:56.608Z,17.85
2022-07-30T01:31:28.736Z,17.83
2022-07-30T01:34:02.079Z,17.83
2022-07-30T01:36:32.840Z,17.80
2022-07-30T01:39:03.044Z,17.76
2022-07-30T01:41:32.441Z,17.74
2022-07-30T01:44:03.284Z,17.74
2022-07-30T01:46:33.844Z,17.72
2022-07-30T01:49:03.851Z,17.67
2022-07-30T01:51:37.639Z,17.64
2022-07-30T01:54:13.448Z,17.65
2022-07-30T01:56:46.871Z,17.65
2022-07-30T01:59:20.509Z,17.65
2022-07-30T02:01:48.428Z,17.63
2022-07-30T02:04:16.225Z,17.64
2022-07-30T02:07:04.953Z,17.63
2022-07-30T02:09:51.922Z,17.58
2022-07-30T02:12:29.058Z,17.55
2022-07-30T02:15:16.556Z,17.50
2022-07-30T02:18:10.859Z,17.48
2022-07-30T02:20:44.135Z,17.45
2022-07-30T02:23:19.896Z,17.44
2022-07-30T02:25:51.886Z,17.46
2022-07-30T02:28:23.333Z,17.43
2022-07-30T02:30:58.354Z,17.43
2022-07-30T02:33:48.470Z,17.39
2022-07-30T02:36:20.040Z,17.32
2022-07-30T02:38:51.958Z,17.26
2022-07-30T02:41:28.676Z,17.24
2022-07-30T02:43:59.302Z,17.19
2022-07-30T02:46:28.696Z,17.17
2022-07-30T02:49:00.083Z,17.18
2022-07-30T02:51:29.765Z,17.18
2022-07-30T02:54:01.686Z,17.13
2022-07-30T02:56:31.279Z,17.06
2022-07-30T02:59:05.098Z,17.01
2022-07-30T03:01:35.414Z,16.98
2022-07-30T03:04:07.173Z,16.93
2022-07-30T03:06:36.438Z,16.84
2022-07-30T03:09:07.421Z,16.77
2022-07-30T03:11:36.611Z,16.75
2022-07-30T03:14:04.036Z,16.76
2022-07-30T03:16:39.142Z,16.70
2022-07-30T03:19:11.884Z,16.67
2022-07-30T03:21:42.293Z,16.60
2022-07-30T03:24:14.823Z,16.57
2022-07-30T03:26:46.981Z,16.57
2022-07-30T03:29:21.692Z,16.53
2022-07-30T03:31:50.942Z,16.50
2022-07-30T03:34:21.606Z,16.49
2022-07-30T03:36:51.398Z,16.42
2022-07-30T03:39:21.121Z,16.44
2022-07-30T03:41:50.938Z,16.47
2022-07-30T03:44:19.089Z,16.56
2022-07-30T03:46:50.608Z,16.49
2022-07-30T03:49:18.715Z,16.48
2022-07-30T03:51:47.266Z,16.43
2022-07-30T03:54:17.003Z,16.34
2022-07-30T03:56:44.666Z,16.30
2022-07-30T03:59:14.639Z,16.28
2022-07-30T04:01:42.036Z,16.36
2022-07-30T04:04:11.652Z,16.40
2022-07-30T04:06:40.509Z,16.35
2022-07-30T04:09:10.343Z,16.26
2022-07-30T04:11:40.823Z,16.18
2022-07-30T04:14:09.700Z,16.16
2022-07-30T04:17:04.551Z,16.31
2022-07-30T04:19:50.903Z,16.42
2022-07-30T04:22:30.572Z,16.49
2022-07-30T04:25:01.270Z,16.51
2022-07-30T04:27:32.976Z,16.43
2022-07-30T04:30:01.061Z,16.41
2022-07-30T04:32:28.908Z,16.49
2022-07-30T04:34:57.155Z,16.63
2022-07-30T04:37:27.611Z,16.67
2022-07-30T04:39:57.657Z,16.60
2022-07-30T04:42:28.751Z,16.64
2022-07-30T04:44:57.564Z,16.69
2022-07-30T04:47:25.621Z,16.75
2022-07-30T04:49:55.325Z,16.80
2022-07-30T04:52:25.436Z,16.88
2022-07-30T04:55:02.918Z,16.92
2022-07-30T04:57:34.006Z,16.97
2022-07-30T05:00:01.696Z,16.97
2022-07-30T05:02:33.798Z,16.96
2022-07-30T05:05:03.667Z,16.96
2022-07-30T05:07:32.190Z,16.98
2022-07-30T05:09:59.795Z,17.07
2022-07-30T05:12:37.739Z,17.17
2022-07-30T05:15:07.776Z,17.17
2022-07-30T05:17:37.445Z,17.20
2022-07-30T05:20:06.660Z,17.21
2022-07-30T05:22:33.694Z,17.22
2022-07-30T05:25:00.766Z,17.18
2022-07-30T05:27:27.763Z,17.22
2022-07-30T05:29:55.330Z,17.26
2022-07-30T05:32:23.349Z,17.33
2022-07-30T05:34:54.069Z,17.41
2022-07-30T05:37:21.118Z,17.49
2022-07-30T05:39:57.365Z,17.51
2022-07-30T05:42:30.183Z,17.49
2022-07-30T05:44:57.232Z,17.48
2022-07-30T05:47:24.231Z,17.55
2022-07-30T05:49:51.246Z,17.61
2022-07-30T05:52:19.044Z,17.74
2022-07-30T05:54:46.171Z,17.74
2022-07-30T05:57:13.274Z,17.73
2022-07-30T05:59:40.357Z,17.71
2022-07-30T06:02:07.482Z,17.81
2022-07-30T06:04:35.713Z,17.78
2022-07-30T06:07:03.649Z,17.81
2022-07-30T06:09:36.919Z,17.69
2022-07-30T06:12:06.551Z,17.78
2022-07-30T06:14:33.855Z,17.77
2022-07-30T06:17:01.279Z,17.79
2022-07-30T06:19:28.668Z,17.80
2022-07-30T06:22:05.569Z,17.90
2022-07-30T06:24:34.711Z,18.06
2022-07-30T06:27:02.293Z,18.22
2022-07-30T06:29:30.203Z,18.49
2022-07-30T06:31:57.233Z,18.75
2022-07-30T06:34:24.235Z,19.00
2022-07-30T06:36:51.313Z,19.24
2022-07-30T06:39:57.613Z,19.27
2022-07-30T06:42:06.882Z,19.12
2022-07-30T06:44:34.154Z,19.17
2022-07-30T06:47:07.013Z,19.23
2022-07-30T06:49:37.407Z,19.09
2022-07-30T06:52:05.828Z,19.01
2022-07-30T06:54:32.972Z,19.06
2022-07-30T06:57:00.312Z,18.98
2022-07-30T06:59:28.214Z,19.07
2022-07-30T07:01:55.351Z,19.11
2022-07-30T07:04:23.183Z,19.18
2022-07-30T07:06:50.236Z,19.37
2022-07-30T07:09:17.372Z,19.52
2022-07-30T07:11:44.406Z,19.48
2022-07-30T07:14:11.451Z,19.37
2022-07-30T07:16:38.548Z,19.35
2022-07-30T07:19:05.673Z,19.49
2022-07-30T07:21:33.221Z,19.51
2022-07-30T07:24:03.247Z,19.61
2022-07-30T07:26:32.440Z,19.70
2022-07-30T07:29:03.499Z,19.61
2022-07-30T07:32:07.442Z,19.75
2022-07-30T07:34:19.724Z,19.86
2022-07-30T07:36:46.839Z,19.78
2022-07-30T07:39:15.004Z,19.89
2022-07-30T07:41:48.993Z,20.00
2022-07-30T07:44:16.777Z,20.09
2022-07-30T07:46:43.908Z,19.98
2022-07-30T07:49:11.175Z,19.99
2022-07-30T07:51:47.385Z,20.07
2022-07-30T07:54:24.350Z,20.09
2022-07-30T07:56:55.947Z,20.32
2022-07-30T07:59:25.471Z,20.41
2022-07-30T08:02:08.726Z,20.61
2022-07-30T08:04:36.514Z,20.68
2022-07-30T08:07:04.619Z,20.71
2022-07-30T08:09:44.422Z,20.77
2022-07-30T08:12:15.396Z,20.89
2022-07-30T08:14:42.395Z,20.67
2022-07-30T08:17:09.812Z,20.84
2022-07-30T08:19:36.905Z,20.84
2022-07-30T08:22:04.066Z,20.86
2022-07-30T08:24:31.501Z,20.98
2022-07-30T08:26:59.258Z,21.01
2022-07-30T08:29:26.473Z,21.10
2022-07-30T08:31:53.613Z,21.14
2022-07-30T08:34:20.924Z,21.11
2022-07-30T08:36:53.128Z,21.24
2022-07-30T08:39:20.171Z,21.41
2022-07-30T08:41:49.169Z,21.41
2022-07-30T08:44:19.710Z,21.51
2022-07-30T08:46:50.754Z,21.34
2022-07-30T08:49:20.023Z,21.46
2022-07-30T08:51:47.889Z,21.60
2022-07-30T08:54:16.730Z,21.62
2022-07-30T08:56:45.401Z,21.56
2022-07-30T08:59:13.028Z,21.57
2022-07-30T09:01:40.081Z,21.63
2022-07-30T09:04:07.248Z,21.73
2022-07-30T09:06:35.957Z,21.60
2022-07-30T09:09:03.895Z,21.70
2022-07-30T09:11:36.226Z,21.81
2022-07-30T09:14:13.862Z,21.96
2022-07-30T09:16:44.664Z,21.77
2022-07-30T09:19:19.686Z,21.82
2022-07-30T09:22:02.854Z,21.55
2022-07-30T09:24:45.955Z,21.41
2022-07-30T09:27:13.114Z,21.60
2022-07-30T09:29:40.229Z,21.78
2022-07-30T09:32:09.735Z,21.80
2022-07-30T09:34:40.192Z,21.83
2022-07-30T09:37:10.096Z,21.79
2022-07-30T09:39:59.329Z,22.01
2022-07-30T09:42:29.651Z,22.08
2022-07-30T09:45:16.025Z,22.24
2022-07-30T09:47:48.470Z,22.20
2022-07-30T09:50:29.341Z,22.30
2022-07-30T09:53:11.971Z,22.17
2022-07-30T09:55:41.966Z,22.29
2022-07-30T09:58:12.913Z,22.59
2022-07-30T10:00:46.190Z,22.99
2022-07-30T10:03:33.882Z,23.17
2022-07-30T10:06:05.758Z,23.15
2022-07-30T10:08:46.689Z,23.52
2022-07-30T10:11:23.777Z,23.88
2022-07-30T10:13:57.925Z,23.95
2022-07-30T10:16:29.680Z,23.84
2022-07-30T10:19:00.237Z,23.65
2022-07-30T10:21:32.438Z,23.54
2022-07-30T10:24:04.284Z,23.60
2022-07-30T10:26:35.399Z,23.83
2022-07-30T10:29:05.148Z,23.54
2022-07-30T10:31:46.904Z,23.48
2022-07-30T10:34:23.965Z,23.58
2022-07-30T10:37:04.647Z,23.35
2022-07-30T10:40:10.409Z,23.47
2022-07-30T10:43:31.484Z,23.42
2022-07-30T10:47:07.306Z,23.49
2022-07-30T10:49:41.048Z,23.60
2022-07-30T10:52:12.016Z,23.85
2022-07-30T10:54:45.314Z,23.68
2022-07-30T10:57:31.619Z,23.79
2022-07-30T10:59:59.926Z,24.10
2022-07-30T11:02:35.406Z,24.22
2022-07-30T11:05:45.583Z,24.45
2022-07-30T11:08:35.781Z,24.65
2022-07-30T11:11:59.518Z,24.98
2022-07-30T11:14:08.980Z,25.13
2022-07-30T11:16:36.975Z,25.06
2022-07-30T11:19:56.989Z,25.02
2022-07-30T11:22:41.244Z,25.26
2022-07-30T11:25:50.346Z,25.30
2022-07-30T11:28:45.535Z,24.98
2022-07-30T11:31:58.832Z,25.10
2022-07-30T11:34:30.541Z,25.20
2022-07-30T11:37:19.130Z,25.52
2022-07-30T11:39:58.601Z,25.54
2022-07-30T11:42:35.917Z,25.42
2022-07-30T11:45:18.540Z,25.33
2022-07-30T11:47:57.018Z,25.24
2022-07-30T11:50:33.553Z,25.14
2022-07-30T11:53:14.559Z,25.09
2022-07-30T11:55:53.865Z,25.27
2022-07-30T11:58:39.852Z,25.18
2022-07-30T12:01:16.959Z,25.59
2022-07-30T12:03:46.354Z,25.75
2022-07-30T12:06:20.646Z,25.57
2022-07-30T12:08:58.180Z,25.33
2022-07-30T12:11:34.098Z,25.51
2022-07-30T12:14:03.388Z,25.69
2022-07-30T12:16:33.603Z,25.96
2022-07-30T12:19:09.478Z,25.92
2022-07-30T12:21:37.226Z,25.39
2022-07-30T12:24:13.772Z,25.41
2022-07-30T12:26:40.927Z,25.49
2022-07-30T12:29:13.292Z,25.41
2022-07-30T12:31:41.969Z,25.59
2022-07-30T12:34:27.776Z,25.67
2022-07-30T12:36:55.638Z,25.60
2022-07-30T12:39:27.105Z,25.25
2022-07-30T12:41:56.265Z,25.43
2022-07-30T12:44:46.535Z,25.51
2022-07-30T12:47:27.417Z,25.81
2022-07-30T12:50:00.891Z,25.79
2022-07-30T12:52:35.886Z,25.87
2022-07-30T12:55:13.221Z,25.60
2022-07-30T12:58:08.430Z,25.87
2022-07-30T13:00:44.902Z,25.79
2022-07-30T13:03:27.661Z,25.85
2022-07-30T13:05:57.340Z,25.84
2022-07-30T13:08:57.729Z,25.93
2022-07-30T13:11:49.272Z,26.13
2022-07-30T13:14:17.462Z,26.22
2022-07-30T13:16:45.661Z,26.27
2022-07-30T13:19:12.883Z,26.31
2022-07-30T13:21:49.853Z,26.47
2022-07-30T13:24:19.605Z,26.60
2022-07-30T13:26:47.261Z,26.56
2022-07-30T13:29:15.037Z,26.36
2022-07-30T13:31:43.578Z,26.51
2022-07-30T13:34:12.700Z,26.57
2022-07-30T13:36:40.200Z,26.70
2022-07-30T13:39:07.595Z,26.70
2022-07-30T13:41:36.258Z,26.77
2022-07-30T13:44:04.773Z,26.85
2022-07-30T13:46:31.912Z,27.32
2022-07-30T13:48:59.238Z,27.37
2022-07-30T13:51:26.400Z,27.44
2022-07-30T13:53:53.510Z,27.09
2022-07-30T13:56:21.587Z,27.21
2022-07-30T13:58:48.637Z,27.19
2022-07-30T14:01:18.150Z,26.88
2022-07-30T14:03:50.574Z,26.83
2022-07-30T14:06:20.174Z,27.14
2022-07-30T14:08:47.461Z,26.62
2022-07-30T14:11:15.809Z,26.83
2022-07-30T14:13:43.010Z,26.79
2022-07-30T14:16:35.365Z,26.92
2022-07-30T14:18:57.741Z,27.09
2022-07-30T14:21:25.404Z,27.30
2022-07-30T14:23:52.544Z,27.25
2022-07-30T14:26:19.729Z,27.07
2022-07-30T14:28:47.243Z,27.04
2022-07-30T14:31:14.120Z,27.37
2022-07-30T14:33:41.275Z,27.89
2022-07-30T14:36:11.509Z,27.94
2022-07-30T14:38:39.953Z,27.93
2022-07-30T14:41:09.051Z,27.97
2022-07-30T14:43:36.343Z,28.01
2022-07-30T14:46:03.490Z,28.11
2022-07-30T14:48:30.606Z,28.20
2022-07-30T14:51:14.392Z,27.64
2022-07-30T14:53:47.223Z,27.19
2022-07-30T14:56:14.625Z,27.36
2022-07-30T14:58:44.816Z,26.74
2022-07-30T15:01:16.107Z,26.48
2022-07-30T15:03:46.371Z,26.59
2022-07-30T15:06:15.515Z,27.00
2022-07-30T15:08:46.024Z,26.85
2022-07-30T15:11:13.597Z,27.10
2022-07-30T15:13:49.786Z,27.57
2022-07-30T15:16:19.405Z,28.08
2022-07-30T15:18:47.187Z,28.46
2022-07-30T15:21:14.934Z,28.68
2022-07-30T15:23:42.184Z,28.97
2022-07-30T15:26:09.384Z,29.02
2022-07-30T15:28:36.439Z,29.14
2022-07-30T15:31:03.654Z,29.10
2022-07-30T15:33:30.953Z,28.90
2022-07-30T15:36:04.029Z,29.08
2022-07-30T15:38:31.105Z,28.95
2022-07-30T15:40:58.119Z,29.19
2022-07-30T15:43:25.124Z,29.64
2022-07-30T15:45:56.099Z,29.94
2022-07-30T15:48:26.937Z,30.06
2022-07-30T15:51:04.838Z,29.71
2022-07-30T15:53:33.048Z,29.59
2022-07-30T15:56:01.293Z,29.50
2022-07-30T15:58:28.552Z,29.98
2022-07-30T16:00:56.305Z,30.81
2022-07-30T16:03:23.895Z,30.68
2022-07-30T16:05:52.937Z,30.69
2022-07-30T16:08:21.656Z,31.04
2022-07-30T16:10:49.777Z,30.62
2022-07-30T16:13:16.886Z,30.44
2022-07-30T16:15:45.369Z,30.79
2022-07-30T16:18:12.507Z,30.92
2022-07-30T16:20:39.496Z,30.73
2022-07-30T16:23:12.164Z,30.92
2022-07-30T16:25:41.212Z,30.47
2022-07-30T16:28:08.228Z,30.23
2022-07-30T16:30:35.308Z,30.27
2022-07-30T16:33:16.945Z,29.96
2022-07-30T16:35:49.249Z,29.07
2022-07-30T16:38:21.056Z,28.09
2022-07-30T16:40:48.270Z,27.73
2022-07-30T16:43:19.876Z,26.52
2022-07-30T16:45:48.140Z,26.18
2022-07-30T16:48:15.307Z,26.02
2022-07-30T16:50:42.959Z,25.76
2022-07-30T16:53:14.226Z,25.75
2022-07-30T16:55:43.607Z,25.53
2022-07-30T16:58:12.460Z,25.34
2022-07-30T17:00:40.217Z,25.19
2022-07-30T17:03:08.295Z,25.03
2022-07-30T17:05:35.615Z,25.03
2022-07-30T17:08:06.496Z,24.99
2022-07-30T17:10:36.127Z,24.86
2022-07-30T17:13:03.576Z,24.78
2022-07-30T17:15:32.107Z,24.86
2022-07-30T17:18:01.807Z,24.88
2022-07-30T17:20:32.326Z,25.01
2022-07-30T17:22:59.343Z,25.06
2022-07-30T17:25:28.397Z,25.16
2022-07-30T17:27:58.671Z,25.67
2022-07-30T17:30:28.952Z,26.53
2022-07-30T17:32:56.557Z,27.06
2022-07-30T17:35:24.833Z,26.85
2022-07-30T17:37:52.730Z,26.29
2022-07-30T17:40:30.628Z,25.92
2022-07-30T17:43:04.187Z,25.48
2022-07-30T17:45:35.510Z,25.08
2022-07-30T17:48:05.356Z,24.63
2022-07-30T17:50:34.737Z,24.45
2022-07-30T17:53:05.769Z,24.22
2022-07-30T17:55:35.447Z,24.00
2022-07-30T17:58:05.213Z,23.92
2022-07-30T18:00:34.758Z,23.81
2022-07-30T18:03:03.634Z,23.70
2022-07-30T18:05:30.897Z,23.54
2022-07-30T18:07:58.019Z,23.38
2022-07-30T18:10:25.059Z,23.26
2022-07-30T18:12:52.168Z,23.14
2022-07-30T18:15:19.502Z,23.00
2022-07-30T18:17:46.877Z,22.81
2022-07-30T18:20:15.387Z,22.52
2022-07-30T18:22:43.285Z,22.23
2022-07-30T18:25:18.640Z,22.05
2022-07-30T18:27:47.923Z,21.88
2022-07-30T18:30:16.149Z,21.77
2022-07-30T18:32:45.930Z,21.66
2022-07-30T18:35:15.200Z,21.58
2022-07-30T18:37:44.591Z,21.57
2022-07-30T18:40:18.551Z,21.52
2022-07-30T18:42:49.578Z,21.45
2022-07-30T18:45:16.721Z,21.39
2022-07-30T18:47:45.927Z,21.26
2022-07-30T18:50:16.068Z,21.23
2022-07-30T18:52:43.366Z,21.19
2022-07-30T18:55:12.541Z,20.98
2022-07-30T18:57:41.731Z,20.87
2022-07-30T19:00:34.790Z,20.84
2022-07-30T19:03:01.217Z,20.76
2022-07-30T19:05:28.605Z,20.69
2022-07-30T19:07:58.564Z,20.62
2022-07-30T19:10:27.264Z,20.57
2022-07-30T19:12:56.233Z,20.51
2022-07-30T19:15:23.898Z,20.44
2022-07-30T19:17:51.822Z,20.36
2022-07-30T19:20:21.354Z,20.32
2022-07-30T19:22:48.481Z,20.36
2022-07-30T19:25:19.473Z,20.35
2022-07-30T19:27:47.241Z,20.34
2022-07-30T19:30:14.774Z,20.26
2022-07-30T19:32:41.925Z,20.19
2022-07-30T19:35:13.313Z,20.15
2022-07-30T19:37:41.161Z,20.11
2022-07-30T19:40:09.047Z,20.05
2022-07-30T19:42:36.830Z,19.99
2022-07-30T19:45:12.095Z,19.90
2022-07-30T19:47:42.412Z,19.89
2022-07-30T19:54:43.446Z,19.78
2022-07-30T19:57:10.509Z,19.67
2022-07-30T19:59:46.353Z,19.62
2022-07-30T20:02:24.599Z,19.58
2022-07-30T20:04:54.940Z,19.49
2022-07-30T20:07:22.904Z,19.42
2022-07-30T20:09:54.720Z,19.37
2022-07-30T20:12:24.363Z,19.31
2022-07-30T20:14:51.782Z,19.25
2022-07-30T20:17:18.866Z,19.20
2022-07-30T20:19:47.623Z,19.16
2022-07-30T20:22:16.421Z,19.07
2022-07-30T20:24:47.960Z,18.98
2022-07-30T20:27:36.331Z,18.91
2022-07-30T20:30:09.463Z,18.82
2022-07-30T20:32:43.536Z,18.77
2022-07-30T20:35:13.846Z,18.68
2022-07-30T20:40:27.826Z,18.53
2022-07-30T20:42:55.416Z,18.44
2022-07-30T20:45:24.689Z,18.43
2022-07-30T20:47:56.588Z,18.43
2022-07-30T20:50:30.636Z,18.32
2022-07-30T20:52:59.439Z,18.24
2022-07-30T20:55:27.433Z,18.23
2022-07-30T20:58:00.423Z,18.19
2022-07-30T21:00:36.987Z,18.11
2022-07-30T21:03:05.609Z,18.06
2022-07-30T21:05:32.944Z,18.03
2022-07-30T21:08:00.700Z,17.96
2022-07-30T21:10:28.266Z,17.94
2022-07-30T21:13:02.873Z,17.97
2022-07-30T21:15:33.083Z,17.96
2022-07-30T21:18:02.976Z,17.91
2022-07-30T21:20:31.936Z,17.87
2022-07-30T21:23:12.797Z,17.85
2022-07-30T21:26:02.851Z,17.83
2022-07-30T21:28:35.520Z,17.76
2022-07-30T21:33:52.494Z,17.62
2022-07-30T21:36:24.986Z,17.61
2022-07-30T21:38:52.504Z,17.60
2022-07-30T21:41:21.594Z,17.56
2022-07-30T21:44:07.729Z,17.50
2022-07-30T21:46:35.083Z,17.50
2022-07-30T21:49:05.472Z,17.45
2022-07-30T21:51:35.681Z,17.37
2022-07-30T21:54:07.085Z,17.24
2022-07-30T21:56:34.673Z,17.20
2022-07-30T21:59:08.969Z,17.28
2022-07-30T22:01:47.683Z,17.24
2022-07-30T22:04:16.528Z,17.14
2022-07-30T22:06:43.879Z,17.06
2022-07-30T22:09:26.387Z,17.03
2022-07-30T22:12:09.038Z,17.00
2022-07-30T22:14:39.187Z,17.00
2022-07-30T22:17:22.668Z,17.00
2022-07-30T22:19:52.229Z,16.94
2022-07-30T22:22:26.106Z,16.89
2022-07-30T22:24:55.205Z,16.79
2022-07-30T22:27:24.402Z,16.74
2022-07-30T22:29:51.444Z,16.68
2022-07-30T22:32:24.481Z,16.63
2022-07-30T22:34:52.940Z,16.60
2022-07-30T22:40:09.418Z,16.34
2022-07-30T22:42:46.859Z,16.26
2022-07-30T22:45:42.293Z,16.18
2022-07-30T22:48:10.170Z,16.15
2022-07-30T22:50:40.693Z,16.13
2022-07-30T22:54:02.700Z,16.08
2022-07-30T22:55:56.372Z,16.02
2022-07-30T22:58:26.439Z,16.08
2022-07-30T23:00:54.007Z,15.91
2022-07-30T23:03:21.331Z,15.80
2022-07-30T23:05:55.809Z,15.76
2022-07-30T23:08:29.934Z,15.81
2022-07-30T23:10:59.903Z,15.83
2022-07-30T23:12:19.467Z,18.62
2022-07-30T23:12:27.406Z,17.69
2022-07-30T23:12:32.268Z,16.46
2022-07-30T23:13:28.862Z,15.78
2022-07-30T23:15:56.466Z,15.64
2022-07-30T23:18:23.969Z,15.61
2022-07-30T23:20:51.153Z,15.63
2022-07-30T23:23:18.201Z,15.57
2022-07-30T23:25:45.390Z,15.55
2022-07-30T23:28:12.670Z,15.59
2022-07-30T23:30:39.725Z,15.64
2022-07-30T23:33:06.803Z,15.66
2022-07-30T23:35:33.859Z,15.64
2022-07-30T23:38:00.860Z,15.58
2022-07-30T23:40:28.584Z,15.54
2022-07-30T23:42:55.952Z,15.47
2022-07-30T23:45:23.139Z,15.40
2022-07-30T23:48:01.384Z,15.33
2022-07-30T23:50:33.358Z,15.35
2022-07-30T23:53:03.119Z,15.21
2022-07-30T23:55:32.549Z,15.09
2022-07-30T23:58:00.421Z,15.16
